Time;durP1;ratioP1;P1;durP2;ratioP2;P2;SDS_P1;SDS_P2;PMS_P1;PMS_P2;Temp;Humidity;BMP_temperature;BMP_pressure;BME280_temperature;BME280_humidity;BME280_pressure;Samples;Min_cycle;Max_cycle;Signal;HPM_P1;HPM_P2
2023/10/24 00:00:09;;;;;;;41.97;16.50;;;;;;;-141.97;nan;47465.25;5006580;28;20241;-83
2023/10/24 00:02:34;;;;;;;42.83;16.60;;;;;;;-141.97;nan;47751.66;5012015;28;20171;-83
2023/10/24 00:05:00;;;;;;;47.90;17.93;;;;;;;-141.97;nan;47742.03;4997606;28;20178;-84
2023/10/24 00:07:25;;;;;;;43.30;15.63;;;;;;;-141.97;nan;47586.34;5000251;28;20659;-85
2023/10/24 00:09:50;;;;;;;40.50;16.70;;;;;;;-141.97;nan;47565.22;4991908;28;20254;-86
2023/10/24 00:12:16;;;;;;;42.50;16.50;;;;;;;-141.97;nan;47588.28;4990649;28;20229;-85
2023/10/24 00:14:42;;;;;;;35.63;15.93;;;;;;;-141.97;nan;47624.78;4993441;28;20195;-85
2023/10/24 00:17:08;;;;;;;39.33;15.73;;;;;;;-141.97;nan;47640.16;4988174;28;20611;-85
2023/10/24 00:19:33;;;;;;;41.77;16.70;;;;;;;-141.97;nan;47749.72;4983262;28;20206;-85
2023/10/24 00:21:59;;;;;;;40.07;16.30;;;;;;;-141.97;nan;47465.25;4970958;28;20612;-84
2023/10/24 00:24:26;;;;;;;42.93;16.03;;;;;;;-141.97;nan;47563.28;5001160;28;20227;-87
2023/10/24 00:26:51;;;;;;;42.50;15.37;;;;;;;-141.97;nan;47615.19;4981128;28;20254;-84
2023/10/24 00:29:16;;;;;;;38.57;16.33;;;;;;;-141.97;nan;47619.03;5001599;28;20634;-84
2023/10/24 00:31:42;;;;;;;41.77;16.30;;;;;;;-141.97;nan;47647.84;4978919;28;20175;-84
2023/10/24 00:34:12;;;;;;;38.60;16.00;;;;;;;-141.97;nan;47634.41;4978933;28;20179;-83
2023/10/24 00:36:39;;;;;;;45.37;16.30;;;;;;;-141.97;nan;47636.31;4995977;28;20159;-83
2023/10/24 00:39:05;;;;;;;43.17;16.20;;;;;;;-141.97;nan;47576.75;4995490;28;20164;-83
2023/10/24 00:41:31;;;;;;;40.73;16.07;;;;;;;-141.97;nan;47576.75;4995782;28;20190;-85
2023/10/24 00:43:56;;;;;;;34.10;15.97;;;;;;;-141.97;nan;47644.00;5003785;28;20190;-83
2023/10/24 00:46:22;;;;;;;33.20;15.80;;;;;;;-141.97;nan;47561.38;5017044;28;20180;-84
2023/10/24 00:48:48;;;;;;;36.63;15.93;;;;;;;-141.97;nan;47607.50;4978005;28;20264;-82
2023/10/24 00:51:14;;;;;;;39.60;15.90;;;;;;;-141.97;nan;47451.81;4978812;28;20495;-81
2023/10/24 00:53:40;;;;;;;38.20;15.47;;;;;;;-141.97;nan;47628.63;4975314;28;20215;-80
2023/10/24 00:56:06;;;;;;;40.20;15.37;;;;;;;-141.97;nan;47634.41;4975633;28;20198;-82
2023/10/24 00:58:32;;;;;;;32.37;15.37;;;;;;;-141.97;nan;47788.19;4976206;28;20244;-82
2023/10/24 01:00:59;;;;;;;40.07;15.97;;;;;;;-141.97;nan;47609.41;4976152;28;20633;-82
2023/10/24 01:03:26;;;;;;;33.80;15.50;;;;;;;-141.97;nan;47607.50;4991279;28;20171;-82
2023/10/24 01:05:52;;;;;;;39.20;15.37;;;;;;;-141.97;nan;47549.84;4996013;28;20548;-83
2023/10/24 01:08:18;;;;;;;34.97;15.53;;;;;;;-141.97;nan;47711.28;4993330;28;20207;-84
2023/10/24 01:10:43;;;;;;;39.17;15.33;;;;;;;-141.97;nan;47722.81;5019875;28;20171;-84
2023/10/24 01:13:09;;;;;;;33.63;14.57;;;;;;;-141.97;nan;47513.31;5018917;28;20210;-84
2023/10/24 01:15:34;;;;;;;33.33;15.17;;;;;;;-141.97;nan;47540.22;5009904;28;20171;-83
2023/10/24 01:18:00;;;;;;;38.03;14.90;;;;;;;-141.97;nan;47688.22;5007981;28;20175;-83
2023/10/24 01:20:25;;;;;;;38.80;15.17;;;;;;;-141.97;nan;47580.59;4995049;28;20171;-82
2023/10/24 01:22:50;;;;;;;33.53;15.13;;;;;;;-141.97;nan;47619.03;5006777;28;20360;-82
2023/10/24 01:25:16;;;;;;;36.13;15.07;;;;;;;-141.97;nan;47622.88;5015799;28;20171;-83
2023/10/24 01:27:43;;;;;;;39.33;14.33;;;;;;;-141.97;nan;47609.41;4990899;28;20302;-82
2023/10/24 01:30:10;;;;;;;33.43;13.20;;;;;;;-141.97;nan;47538.28;4994707;28;20242;-82
2023/10/24 01:32:35;;;;;;;33.37;14.10;;;;;;;-141.97;nan;47486.41;4973319;28;20188;-82
2023/10/24 01:35:01;;;;;;;33.37;13.83;;;;;;;-141.97;nan;47607.50;4976345;28;20180;-83
2023/10/24 01:37:26;;;;;;;36.67;13.93;;;;;;;-141.97;nan;47517.16;4976841;28;20229;-83
2023/10/24 01:39:52;;;;;;;33.17;14.07;;;;;;;-141.97;nan;47745.88;4978679;28;20191;-84
2023/10/24 01:42:17;;;;;;;37.50;14.73;;;;;;;-141.97;nan;47613.25;4986011;28;20190;-85
2023/10/24 01:44:43;;;;;;;32.03;13.63;;;;;;;-141.97;nan;47786.25;4978025;28;20603;-83
2023/10/24 01:47:08;;;;;;;42.43;13.53;;;;;;;-141.97;nan;47549.84;4995044;28;20190;-82
2023/10/24 01:49:33;;;;;;;41.37;13.93;;;;;;;-141.97;nan;47584.44;5001795;28;20183;-84
2023/10/24 01:51:59;;;;;;;30.77;13.50;;;;;;;-141.97;nan;47501.78;4978338;28;20184;-84
2023/10/24 01:54:24;;;;;;;32.67;13.83;;;;;;;-141.97;nan;47647.84;4977527;28;20247;-83
2023/10/24 01:56:49;;;;;;;28.97;12.47;;;;;;;-141.97;nan;47628.63;4975665;28;20621;-84
2023/10/24 01:59:15;;;;;;;32.27;13.53;;;;;;;-141.97;nan;47790.09;4976460;28;20161;-84
2023/10/24 02:01:41;;;;;;;33.30;13.27;;;;;;;-141.97;nan;47538.28;4975773;28;20601;-83
2023/10/24 02:04:06;;;;;;;37.70;13.50;;;;;;;-141.97;nan;47619.03;4973823;28;20283;-86
2023/10/24 02:06:32;;;;;;;31.37;12.77;;;;;;;-141.97;nan;47590.19;4976908;28;20168;-86
2023/10/24 02:08:57;;;;;;;31.97;13.17;;;;;;;-141.97;nan;47757.41;4973695;28;20656;-86
2023/10/24 02:11:23;;;;;;;32.07;13.13;;;;;;;-141.97;nan;47553.69;4972813;28;20175;-85
2023/10/24 02:13:48;;;;;;;32.63;13.37;;;;;;;-141.97;nan;47503.69;4972923;28;20266;-84
2023/10/24 02:16:13;;;;;;;37.03;13.30;;;;;;;-141.97;nan;47749.72;4974542;28;20168;-85
2023/10/24 02:18:39;;;;;;;29.50;12.77;;;;;;;-141.97;nan;47755.50;4973990;28;20664;-85
2023/10/24 02:21:08;;;;;;;33.23;12.50;;;;;;;-141.97;nan;47630.56;4964328;28;20248;-84
2023/10/24 02:23:37;;;;;;;32.47;12.80;;;;;;;-141.97;nan;47578.66;4983204;28;20226;-85
2023/10/24 02:26:02;;;;;;;32.50;12.80;;;;;;;-141.97;nan;47557.53;4975802;28;20171;-84
2023/10/24 02:28:28;;;;;;;27.97;12.30;;;;;;;-141.97;nan;47480.63;4975640;28;20195;-85
2023/10/24 02:30:53;;;;;;;28.47;11.20;;;;;;;-141.97;nan;47524.84;4975702;28;20171;-84
2023/10/24 02:33:19;;;;;;;27.40;11.60;;;;;;;-141.97;nan;47553.69;4975528;28;20542;-84
2023/10/24 02:35:44;;;;;;;31.83;11.70;;;;;;;-141.97;nan;47657.47;4975954;28;20245;-84
2023/10/24 02:38:10;;;;;;;32.60;12.03;;;;;;;-141.97;nan;47561.38;4976602;28;20177;-85
2023/10/24 02:40:35;;;;;;;34.83;12.00;;;;;;;-141.97;nan;47605.56;4994559;28;20160;-84
2023/10/24 02:43:00;;;;;;;30.70;11.93;;;;;;;-141.97;nan;47784.34;4996800;28;20257;-84
2023/10/24 02:45:26;;;;;;;28.50;11.50;;;;;;;-141.97;nan;47626.72;4995626;28;20183;-84
2023/10/24 02:47:51;;;;;;;34.80;12.03;;;;;;;-141.97;nan;47549.84;4995056;28;20230;-86
2023/10/24 02:50:17;;;;;;;33.20;13.53;;;;;;;-141.97;nan;47557.53;4976314;28;20659;-86
2023/10/24 02:52:42;;;;;;;32.63;12.50;;;;;;;-141.97;nan;47449.88;4994750;28;20171;-85
2023/10/24 02:55:08;;;;;;;52.80;22.40;;;;;;;-141.97;nan;47634.41;4993868;28;20183;-84
2023/10/24 02:57:34;;;;;;;41.83;17.57;;;;;;;-141.97;nan;47496.00;4997885;28;20167;-85
2023/10/24 03:00:00;;;;;;;34.97;13.23;;;;;;;-141.97;nan;47530.59;4994766;28;20179;-85
2023/10/24 03:02:25;;;;;;;37.77;15.37;;;;;;;-141.97;nan;47659.38;4993193;28;20167;-84
2023/10/24 03:04:51;;;;;;;36.97;14.37;;;;;;;-141.97;nan;47709.38;4977737;28;20635;-84
2023/10/24 03:07:16;;;;;;;31.03;13.17;;;;;;;-141.97;nan;47492.16;5003690;28;20175;-85
2023/10/24 03:09:42;;;;;;;33.23;12.93;;;;;;;-141.97;nan;47530.59;4993302;28;20356;-84
2023/10/24 03:12:12;;;;;;;29.30;12.17;;;;;;;-141.97;nan;47576.75;4996234;28;20217;-85
2023/10/24 03:14:38;;;;;;;38.20;14.07;;;;;;;-141.97;nan;47626.72;4993467;28;20179;-85
2023/10/24 03:17:03;;;;;;;41.13;14.17;;;;;;;-141.97;nan;47465.25;4995697;28;20221;-85
2023/10/24 03:19:32;;;;;;;32.57;13.80;;;;;;;-141.97;nan;47807.41;4997076;28;20238;-84
2023/10/24 03:21:57;;;;;;;29.37;11.90;;;;;;;-141.97;nan;47563.28;4967993;28;20364;-84
2023/10/24 03:24:22;;;;;;;30.73;11.60;;;;;;;-141.97;nan;47511.38;4987696;28;20621;-84
2023/10/24 03:26:48;;;;;;;22.97;11.93;;;;;;;-141.97;nan;47713.22;4987931;28;20187;-84
2023/10/24 03:29:13;;;;;;;34.37;11.70;;;;;;;-141.97;nan;47642.09;4976428;28;20191;-84
2023/10/24 03:31:38;;;;;;;34.93;11.47;;;;;;;-141.97;nan;47638.25;4992974;28;20159;-84
2023/10/24 03:34:04;;;;;;;31.00;11.47;;;;;;;-141.97;nan;47792.03;4975645;28;20257;-84
2023/10/24 03:36:29;;;;;;;31.43;11.63;;;;;;;-141.97;nan;47557.53;4997734;28;20250;-85
2023/10/24 03:38:55;;;;;;;34.23;11.83;;;;;;;-141.97;nan;47778.56;4981134;28;20186;-85
2023/10/24 03:41:20;;;;;;;27.50;11.87;;;;;;;-141.97;nan;47513.31;4974455;28;20168;-85
2023/10/24 03:43:48;;;;;;;28.93;11.97;;;;;;;-141.97;nan;47649.78;4988355;28;20227;-85
2023/10/24 03:46:14;;;;;;;27.87;11.73;;;;;;;-141.97;nan;47653.63;4972870;28;20165;-86
2023/10/24 03:48:40;;;;;;;30.53;11.00;;;;;;;-141.97;nan;47724.75;4970684;28;20286;-87
2023/10/24 03:51:06;;;;;;;26.30;11.47;;;;;;;-141.97;nan;47557.53;4973062;28;20591;-86
2023/10/24 03:53:31;;;;;;;29.77;11.13;;;;;;;-141.97;nan;47580.59;4972350;28;20170;-87
2023/10/24 03:55:58;;;;;;;25.30;10.10;;;;;;;-141.97;nan;47709.38;4973218;28;20569;-86
2023/10/24 03:58:24;;;;;;;27.47;10.47;;;;;;;-141.97;nan;47534.44;4970681;28;20210;-86
2023/10/24 04:00:50;;;;;;;30.93;10.53;;;;;;;-141.97;nan;47813.16;4971544;28;20167;-84
2023/10/24 04:03:15;;;;;;;25.13;10.87;;;;;;;-141.97;nan;47524.84;4970572;28;20187;-85
2023/10/24 04:05:40;;;;;;;32.70;10.83;;;;;;;-141.97;nan;47647.84;4970740;28;20219;-84
2023/10/24 04:08:06;;;;;;;27.53;10.77;;;;;;;-141.97;nan;47822.78;4971030;28;20282;-84
2023/10/24 04:10:34;;;;;;;26.50;10.77;;;;;;;-141.97;nan;47496.00;4972531;28;20221;-84
2023/10/24 04:13:00;;;;;;;27.67;10.93;;;;;;;-141.97;nan;47534.44;4971014;28;20234;-84
2023/10/24 04:15:27;;;;;;;31.63;10.93;;;;;;;-141.97;nan;47530.59;4970778;28;20253;-84
2023/10/24 04:17:53;;;;;;;37.07;11.50;;;;;;;-141.97;nan;47634.41;4977208;28;20163;-84
2023/10/24 04:20:18;;;;;;;28.53;11.43;;;;;;;-141.97;nan;47530.59;4994031;28;20229;-85
2023/10/24 04:22:44;;;;;;;29.00;10.47;;;;;;;-141.97;nan;47615.19;4989504;28;20266;-84
2023/10/24 04:25:09;;;;;;;30.10;10.80;;;;;;;-141.97;nan;47578.66;4991408;28;20167;-85
2023/10/24 04:27:35;;;;;;;28.97;10.67;;;;;;;-141.97;nan;47592.13;4987956;28;20183;-85
2023/10/24 04:30:00;;;;;;;32.10;11.77;;;;;;;-141.97;nan;47526.75;4970583;28;20183;-84
2023/10/24 04:32:26;;;;;;;29.17;10.17;;;;;;;-141.97;nan;47555.59;4971655;28;20657;-84
2023/10/24 04:34:51;;;;;;;27.80;11.03;;;;;;;-141.97;nan;47599.81;4971008;28;20208;-85
2023/10/24 04:37:18;;;;;;;29.30;10.70;;;;;;;-141.97;nan;47678.63;4970631;28;20691;-85
2023/10/24 04:39:44;;;;;;;37.30;11.60;;;;;;;-141.97;nan;47557.53;4973094;28;20164;-85
2023/10/24 04:42:10;;;;;;;38.50;11.60;;;;;;;-141.97;nan;47584.44;4972252;28;20263;-86
2023/10/24 04:44:35;;;;;;;30.53;11.33;;;;;;;-141.97;nan;47788.19;4970971;28;20178;-86
2023/10/24 04:47:01;;;;;;;30.27;11.80;;;;;;;-141.97;nan;47665.16;4973945;28;20182;-86
2023/10/24 04:49:26;;;;;;;30.10;12.23;;;;;;;-141.97;nan;47767.03;4971418;28;20199;-87
2023/10/24 04:51:52;;;;;;;31.83;11.57;;;;;;;-141.97;nan;47619.03;4988253;28;20180;-86
2023/10/24 04:54:17;;;;;;;33.23;12.00;;;;;;;-141.97;nan;47644.00;4971794;28;20207;-86
2023/10/24 04:56:43;;;;;;;28.47;12.30;;;;;;;-141.97;nan;47615.19;4972250;28;20168;-86
2023/10/24 04:59:08;;;;;;;28.57;12.27;;;;;;;-141.97;nan;47532.53;4970510;28;20184;-86
2023/10/24 05:01:37;;;;;;;35.10;12.30;;;;;;;-141.97;nan;47642.09;4972156;28;20230;-86
2023/10/24 05:04:07;;;;;;;32.20;13.50;;;;;;;-141.97;nan;47628.63;4972153;28;20187;-86
2023/10/24 05:06:33;;;;;;;34.10;13.20;;;;;;;-141.97;nan;47732.44;4979259;28;20236;-85
2023/10/24 05:08:59;;;;;;;34.90;12.37;;;;;;;-141.97;nan;47492.16;4997897;28;20337;-86
2023/10/24 05:11:25;;;;;;;65.07;31.47;;;;;;;-141.97;nan;47538.28;5015549;28;20199;-85
2023/10/24 05:13:51;;;;;;;42.73;20.57;;;;;;;-141.97;nan;47584.44;4999471;28;20168;-86
2023/10/24 05:16:16;;;;;;;35.43;14.17;;;;;;;-141.97;nan;47567.13;4999114;28;20188;-86
2023/10/24 05:18:42;;;;;;;39.73;15.90;;;;;;;-141.97;nan;47649.78;4984254;28;20560;-84
2023/10/24 05:21:07;;;;;;;48.23;17.60;;;;;;;-141.97;nan;47659.38;4976461;28;20165;-86
2023/10/24 05:23:32;;;;;;;54.90;21.37;;;;;;;-141.97;nan;47538.28;4956697;28;20330;-86
2023/10/24 05:25:59;;;;;;;51.43;21.23;;;;;;;-141.97;nan;47546.00;4976385;28;20172;-86
2023/10/24 05:28:24;;;;;;;58.67;24.43;;;;;;;-141.97;nan;47630.56;4975962;28;20192;-85
2023/10/24 05:30:50;;;;;;;66.50;23.47;;;;;;;-141.97;nan;47501.78;4992255;28;20183;-85
2023/10/24 05:33:15;;;;;;;92.03;24.93;;;;;;;-141.97;nan;47494.09;4990320;28;20637;-84
2023/10/24 05:35:50;;;;;;;82.67;23.60;;;;;;;-141.97;nan;47599.81;4977522;28;20172;-85
2023/10/24 05:38:16;;;;;;;90.67;23.67;;;;;;;-141.97;nan;47595.97;4976657;28;20203;-85
2023/10/24 05:40:45;;;;;;;89.50;23.10;;;;;;;-141.97;nan;47559.44;4992403;28;20203;-86
2023/10/24 05:43:10;;;;;;;69.77;21.33;;;;;;;-141.97;nan;47807.41;4975077;28;20231;-86
2023/10/24 05:45:36;;;;;;;66.07;21.63;;;;;;;-141.97;nan;47772.78;4973950;28;20180;-86
2023/10/24 05:48:01;;;;;;;72.37;23.30;;;;;;;-141.97;nan;47672.84;4975718;28;20188;-85
2023/10/24 05:50:30;;;;;;;74.20;24.93;;;;;;;-141.97;nan;47561.38;4976284;28;20191;-86
2023/10/24 05:52:56;;;;;;;71.80;25.23;;;;;;;-141.97;nan;47653.63;4979403;28;20598;-84
2023/10/24 05:55:21;;;;;;;85.43;25.70;;;;;;;-141.97;nan;47609.41;4976737;28;20187;-84
2023/10/24 05:57:47;;;;;;;72.03;24.23;;;;;;;-141.97;nan;47549.84;4976135;28;20179;-85
2023/10/24 06:00:12;;;;;;;56.67;22.30;;;;;;;-141.97;nan;47574.81;4976639;28;20179;-85
2023/10/24 06:02:38;;;;;;;68.63;25.90;;;;;;;-141.97;nan;47540.22;4980017;28;20170;-84
2023/10/24 06:05:04;;;;;;;44.23;17.27;;;;;;;-141.97;nan;47699.75;4978163;28;20290;-86
2023/10/24 06:07:29;;;;;;;50.70;19.00;;;;;;;-141.97;nan;47515.22;4975292;28;20168;-86
2023/10/24 06:09:54;;;;;;;39.23;15.93;;;;;;;-141.97;nan;47626.72;4973422;28;20199;-86
2023/10/24 06:12:20;;;;;;;50.57;17.27;;;;;;;-141.97;nan;47665.16;4975127;28;20195;-90
2023/10/24 06:14:45;;;;;;;36.83;13.17;;;;;;;-141.97;nan;47615.19;4973514;28;20180;-90
2023/10/24 06:17:17;;;;;;;32.37;12.43;;;;;;;-141.97;nan;47799.72;4974384;28;20176;-88
2023/10/24 06:19:43;;;;;;;39.20;12.93;;;;;;;-141.97;nan;47649.78;4973986;28;20160;-89
2023/10/24 06:22:08;;;;;;;29.23;10.37;;;;;;;-141.97;nan;47657.47;4962868;28;20254;-88
2023/10/24 06:24:34;;;;;;;35.30;13.33;;;;;;;-141.97;nan;47480.63;4987146;28;20175;-86
2023/10/24 06:26:59;;;;;;;29.47;10.97;;;;;;;-141.97;nan;47669.00;4972321;28;20461;-87
2023/10/24 06:29:25;;;;;;;28.37;10.73;;;;;;;-141.97;nan;47574.81;4973465;28;20200;-87
2023/10/24 06:31:50;;;;;;;32.30;10.70;;;;;;;-141.97;nan;47486.41;4973311;28;20187;-86
2023/10/24 06:34:15;;;;;;;22.17;10.00;;;;;;;-141.97;nan;47503.69;4969315;28;20279;-86
2023/10/24 06:36:41;;;;;;;33.60;10.53;;;;;;;-141.97;nan;47642.09;4981462;28;20199;-88
2023/10/24 06:39:07;;;;;;;35.40;10.77;;;;;;;-141.97;nan;47515.22;4983313;28;20228;-87
2023/10/24 06:41:33;;;;;;;30.50;10.53;;;;;;;-141.97;nan;47511.38;4980080;28;20173;-89
2023/10/24 06:43:59;;;;;;;33.13;11.03;;;;;;;-141.97;nan;47678.63;4977165;28;20648;-87
2023/10/24 06:46:24;;;;;;;28.20;10.23;;;;;;;-141.97;nan;47640.16;4975515;28;20199;-90
2023/10/24 06:48:52;;;;;;;24.50;9.23;;;;;;;-141.97;nan;47768.94;4973987;28;20227;-87
2023/10/24 06:51:17;;;;;;;26.53;8.63;;;;;;;-141.97;nan;47657.47;4974366;28;20605;-90
2023/10/24 06:53:42;;;;;;;24.20;8.63;;;;;;;-141.97;nan;47522.91;4990196;28;20183;-89
2023/10/24 06:56:08;;;;;;;33.27;9.13;;;;;;;-141.97;nan;47492.16;4991286;28;20186;-88
2023/10/24 06:58:33;;;;;;;30.17;9.60;;;;;;;-141.97;nan;47524.84;4979005;28;20554;-87
2023/10/24 07:00:59;;;;;;;30.87;9.73;;;;;;;-141.97;nan;47557.53;4973004;28;20264;-88
2023/10/24 07:03:24;;;;;;;32.17;10.07;;;;;;;-141.97;nan;47659.38;4983399;28;20681;-86
2023/10/24 07:05:51;;;;;;;32.17;9.60;;;;;;;-141.97;nan;47530.59;4960504;28;20194;-86
2023/10/24 07:08:17;;;;;;;30.00;9.20;;;;;;;-141.97;nan;47472.94;4971697;28;20206;-87
2023/10/24 07:10:42;;;;;;;24.70;9.23;;;;;;;-141.97;nan;47707.44;4973246;28;20168;-87
2023/10/24 07:13:08;;;;;;;26.67;9.67;;;;;;;-141.97;nan;47501.78;4973871;28;20191;-87
2023/10/24 07:15:33;;;;;;;28.33;9.00;;;;;;;-141.97;nan;47795.88;4973342;28;20183;-87
2023/10/24 07:17:58;;;;;;;27.43;8.90;;;;;;;-141.97;nan;47492.16;4979042;28;20672;-87
2023/10/24 07:20:24;;;;;;;25.10;8.83;;;;;;;-141.97;nan;47544.06;4961154;28;20266;-86
2023/10/24 07:22:49;;;;;;;31.37;9.00;;;;;;;-141.97;nan;47717.06;4976991;28;20230;-86
2023/10/24 07:25:15;;;;;;;26.07;9.30;;;;;;;-141.97;nan;47467.19;4990925;28;20796;-88
2023/10/24 07:27:40;;;;;;;25.70;8.57;;;;;;;-141.97;nan;47584.44;4973779;28;20291;-87
2023/10/24 07:30:09;;;;;;;26.07;9.20;;;;;;;-141.97;nan;47588.28;4972959;28;20271;-87
2023/10/24 07:32:34;;;;;;;22.07;7.90;;;;;;;-141.97;nan;47715.13;4970109;28;20191;-87
2023/10/24 07:34:59;;;;;;;25.83;8.73;;;;;;;-141.97;nan;47542.16;4971017;28;20192;-89
2023/10/24 07:37:25;;;;;;;28.67;8.90;;;;;;;-141.97;nan;47557.53;4973783;28;20217;-88
2023/10/24 07:39:50;;;;;;;22.20;8.00;;;;;;;-141.97;nan;47530.59;4992619;28;20164;-88
2023/10/24 07:42:16;;;;;;;20.00;8.10;;;;;;;-141.97;nan;47707.44;4992156;28;20249;-88
2023/10/24 07:44:41;;;;;;;26.03;7.40;;;;;;;-141.97;nan;47582.50;4974989;28;20186;-86
2023/10/24 07:47:07;;;;;;;23.07;7.53;;;;;;;-141.97;nan;47507.53;4979374;28;20175;-89
2023/10/24 07:49:35;;;;;;;20.50;7.33;;;;;;;-141.97;nan;47546.00;4976793;28;20192;-87
2023/10/24 07:52:01;;;;;;;18.60;7.40;;;;;;;-141.97;nan;47717.06;4976155;28;20234;-89
2023/10/24 07:54:29;;;;;;;20.57;7.43;;;;;;;-141.97;nan;47442.19;4988278;28;20191;-87
2023/10/24 07:56:54;;;;;;;22.40;7.93;;;;;;;-141.97;nan;47447.97;5008356;28;20675;-86
2023/10/24 07:59:19;;;;;;;17.40;7.67;;;;;;;-141.97;nan;47472.94;4974689;28;20167;-87
2023/10/24 08:01:45;;;;;;;20.97;7.20;;;;;;;-141.97;nan;47695.91;4992056;28;20316;-87
2023/10/24 08:04:10;;;;;;;26.03;7.43;;;;;;;-141.97;nan;47722.81;4992361;28;20183;-88
2023/10/24 08:06:36;;;;;;;24.10;7.90;;;;;;;-141.97;nan;47540.22;4991107;28;20546;-87
2023/10/24 08:09:01;;;;;;;19.87;7.20;;;;;;;-141.97;nan;47546.00;4991260;28;20317;-87
2023/10/24 08:11:26;;;;;;;23.03;7.33;;;;;;;-141.97;nan;47565.22;4991188;28;20171;-86
2023/10/24 08:13:52;;;;;;;30.23;7.63;;;;;;;-141.97;nan;47503.69;4990146;28;20965;-86
2023/10/24 08:16:17;;;;;;;23.00;7.40;;;;;;;-141.97;nan;47472.94;4991060;28;20175;-87
2023/10/24 08:18:44;;;;;;;23.77;8.27;;;;;;;-141.97;nan;47465.25;4974096;28;20160;-89
2023/10/24 08:21:11;;;;;;;18.70;7.13;;;;;;;-141.97;nan;47538.28;4973923;28;20837;-87
2023/10/24 08:23:37;;;;;;;22.02;8.05;;;;;;;-141.97;nan;47361.47;4970583;28;20242;-88
2023/10/24 08:26:03;;;;;;;20.90;8.27;;;;;;;-141.97;nan;47501.78;4984861;28;20174;-87
2023/10/24 08:28:28;;;;;;;20.30;7.28;;;;;;;-141.97;nan;47457.56;4971595;28;20181;-83
2023/10/24 08:30:53;;;;;;;21.33;7.95;;;;;;;-141.97;nan;47451.81;4971570;28;20328;-85
2023/10/24 08:33:20;;;;;;;25.70;7.30;;;;;;;-141.97;nan;47521.00;4971564;28;20260;-83
2023/10/24 08:35:46;;;;;;;22.70;7.30;;;;;;;-141.97;nan;47578.66;4971149;28;20177;-85
2023/10/24 08:38:12;;;;;;;23.80;7.70;;;;;;;-141.97;nan;47515.22;4971906;28;20202;-85
2023/10/24 08:40:39;;;;;;;20.80;7.57;;;;;;;-141.97;nan;47490.25;4971703;28;20280;-86
2023/10/24 08:43:05;;;;;;;22.88;8.07;;;;;;;-141.97;nan;47488.31;4971461;28;20175;-84
2023/10/24 08:45:31;;;;;;;21.40;7.60;;;;;;;-141.97;nan;47532.53;4976432;28;20241;-83
2023/10/24 08:47:58;;;;;;;22.55;7.78;;;;;;;-141.97;nan;47476.78;4975224;28;20627;-84
2023/10/24 08:50:24;;;;;;;19.23;7.47;;;;;;;-141.97;nan;47438.34;4974187;28;20192;-84
2023/10/24 08:52:51;;;;;;;21.38;7.15;;;;;;;-141.97;nan;47451.81;4973500;28;20197;-85
2023/10/24 08:55:18;;;;;;;20.00;8.20;;;;;;;-141.97;nan;47340.34;4975225;28;20173;-84
2023/10/24 08:57:45;;;;;;;25.58;8.50;;;;;;;-141.97;nan;47676.69;4976631;28;20174;-83
2023/10/24 09:00:20;;;;;;;35.67;8.52;;;;;;;-141.97;nan;47457.56;4982040;28;20188;-84
2023/10/24 09:02:46;;;;;;;24.38;7.78;;;;;;;-141.97;nan;47480.63;4991298;28;20264;-85
2023/10/24 09:05:13;;;;;;;24.40;8.68;;;;;;;-141.97;nan;47453.72;5003960;28;20199;-84
2023/10/24 09:07:39;;;;;;;27.33;9.05;;;;;;;-141.97;nan;47592.13;5054579;23;20231;-84
2023/10/24 09:10:05;;;;;;;21.35;7.90;;;;;;;-141.97;nan;47513.31;5076957;28;20175;-84
2023/10/24 09:12:34;;;;;;;17.73;7.78;;;;;;;-141.97;nan;47426.81;5044468;28;20187;-84
2023/10/24 09:15:01;;;;;;;22.95;7.78;;;;;;;-141.97;nan;47474.88;5034574;28;20169;-85
2023/10/24 09:17:32;;;;;;;23.73;7.40;;;;;;;-141.97;nan;47457.56;5031800;28;20177;-83
2023/10/24 09:19:58;;;;;;;19.23;7.78;;;;;;;-141.97;nan;47323.03;5032182;28;20183;-83
2023/10/24 09:22:27;;;;;;;29.25;7.78;;;;;;;-141.97;nan;47421.06;5023215;28;20168;-85
2023/10/24 09:24:52;;;;;;;22.45;7.35;;;;;;;-141.97;nan;47480.63;5034989;28;20186;-84
2023/10/24 09:27:23;;;;;;;20.55;7.22;;;;;;;-141.97;nan;47436.44;5046923;28;20166;-83
2023/10/24 09:29:49;;;;;;;20.42;7.47;;;;;;;-141.97;nan;47323.03;5042471;28;20204;-84
2023/10/24 09:32:16;;;;;;;18.33;7.28;;;;;;;-141.97;nan;47430.66;5033498;28;20178;-83
2023/10/24 09:34:42;;;;;;;19.65;7.03;;;;;;;-141.97;nan;47451.81;5032360;28;20688;-85
2023/10/24 09:37:10;;;;;;;15.82;6.50;;;;;;;-141.97;nan;47611.34;5032056;28;20552;-85
2023/10/24 09:39:55;;;;;;;20.83;6.63;;;;;;;-141.97;nan;47447.97;5032408;28;20304;-86
2023/10/24 09:42:28;;;;;;;21.08;6.20;;;;;;;-141.97;nan;47480.63;5031301;28;20689;-84
2023/10/24 09:45:07;;;;;;;21.80;6.50;;;;;;;-141.97;nan;47480.63;5032428;28;20602;-84
2023/10/24 09:47:33;;;;;;;17.70;6.13;;;;;;;-141.97;nan;47446.03;5027562;28;20978;-84
2023/10/24 09:49:59;;;;;;;21.42;6.55;;;;;;;-141.97;nan;47355.72;5032184;28;20212;-83
2023/10/24 09:52:29;;;;;;;17.15;5.68;;;;;;;-141.97;nan;47382.63;5033364;28;20633;-85
2023/10/24 09:54:58;;;;;;;14.40;5.72;;;;;;;-141.97;nan;47307.66;5045722;28;20314;-83
2023/10/24 09:57:23;;;;;;;20.23;6.25;;;;;;;-141.97;nan;47609.41;5053453;28;20532;-85
2023/10/24 09:59:56;;;;;;;16.83;6.30;;;;;;;-141.97;nan;47305.75;5041917;28;20181;-86
2023/10/24 10:02:26;;;;;;;18.48;6.45;;;;;;;-141.97;nan;47522.91;5033714;28;20173;-84
2023/10/24 10:04:51;;;;;;;14.13;5.60;;;;;;;-141.97;nan;47417.22;5039797;28;20192;-84
2023/10/24 10:07:18;;;;;;;17.67;5.88;;;;;;;-141.97;nan;47401.84;5033328;28;20228;-84
2023/10/24 10:09:50;;;;;;;14.55;5.35;;;;;;;-141.97;nan;47440.28;5032442;28;20283;-84
2023/10/24 10:12:18;;;;;;;13.13;5.25;;;;;;;-141.97;nan;47276.91;5032138;28;20273;-85
2023/10/24 10:15:21;;;;;;;18.80;5.72;;;;;;;-141.97;nan;47642.09;5033159;28;20165;-84
2023/10/24 10:18:21;;;;;;;13.80;5.18;;;;;;;-141.97;nan;47461.41;5042444;28;20192;-83
2023/10/24 10:20:57;;;;;;;21.42;5.95;;;;;;;-141.97;nan;47436.44;5005813;28;20273;-84
2023/10/24 10:23:42;;;;;;;20.85;5.78;;;;;;;-141.97;nan;47434.50;4970645;28;20238;-84
2023/10/24 10:26:27;;;;;;;15.02;5.40;;;;;;;-141.97;nan;47434.50;4971271;28;20203;-84
2023/10/24 10:29:19;;;;;;;20.13;5.47;;;;;;;-141.97;nan;47415.28;4970925;28;20203;-83
2023/10/24 10:31:57;;;;;;;17.55;5.50;;;;;;;-141.97;nan;47444.13;4954793;28;20191;-85
2023/10/24 10:34:35;;;;;;;16.67;5.55;;;;;;;-141.97;nan;47386.47;4971774;28;20190;-84
2023/10/24 10:37:03;;;;;;;22.67;5.40;;;;;;;-141.97;nan;47328.81;4971579;28;20312;-85
2023/10/24 10:39:29;;;;;;;22.75;5.63;;;;;;;-141.97;nan;47465.25;4970951;28;20179;-84
2023/10/24 10:41:56;;;;;;;16.20;5.15;;;;;;;-141.97;nan;47438.34;4956377;28;20210;-84
2023/10/24 10:44:34;;;;;;;14.90;5.32;;;;;;;-141.97;nan;47457.56;4991572;28;20498;-84
2023/10/24 10:47:04;;;;;;;14.20;5.35;;;;;;;-141.97;nan;47446.03;4990640;28;20179;-85
2023/10/24 10:49:50;;;;;;;18.70;6.00;;;;;;;-141.97;nan;47434.50;4967751;28;20243;-85
2023/10/24 10:52:36;;;;;;;16.65;5.45;;;;;;;-141.97;nan;47457.56;4972630;28;20640;-84
2023/10/24 10:55:16;;;;;;;15.45;5.32;;;;;;;-141.97;nan;47157.75;4971837;28;20584;-84
2023/10/24 10:57:55;;;;;;;21.40;6.15;;;;;;;-141.97;nan;47307.66;5044278;28;20180;-86
2023/10/24 11:00:26;;;;;;;15.95;5.80;;;;;;;-141.97;nan;47238.47;5049244;28;20176;-85
2023/10/24 11:03:12;;;;;;;19.13;5.70;;;;;;;-141.97;nan;47407.59;5032716;28;20215;-83
2023/10/24 11:05:38;;;;;;;16.20;5.45;;;;;;;-141.97;nan;47424.91;5030381;28;20181;-84
2023/10/24 11:08:12;;;;;;;12.25;5.35;;;;;;;-141.97;nan;47647.84;5030031;28;20240;-84
2023/10/24 11:10:51;;;;;;;18.33;5.30;;;;;;;-141.97;nan;47488.31;5030929;28;20178;-85
2023/10/24 11:13:37;;;;;;;18.95;5.65;;;;;;;-141.97;nan;47426.81;5030902;28;20231;-83
2023/10/24 11:16:07;;;;;;;18.92;6.07;;;;;;;-141.97;nan;47530.59;5030586;28;20560;-84
2023/10/24 11:18:34;;;;;;;13.52;4.68;;;;;;;-141.97;nan;47259.63;5032436;28;20178;-86